sensor_id;sensor_type;location;lat;lon;timestamp;pressure;altitude;pressure_sealevel;temperature;humidity
2563;BME280;1291;51.420;6.970;2023-07-20T00:00:26;99832.47;;;34.17;nan
2563;BME280;1291;51.420;6.970;2023-07-20T00:02:51;99842.25;;;33.06;nan
2563;BME280;1291;51.420;6.970;2023-07-20T00:05:17;99841.09;;;34.10;nan
2563;BME280;1291;51.420;6.970;2023-07-20T00:07:50;99841.78;;;33.51;nan
2563;BME280;1291;51.420;6.970;2023-07-20T00:10:17;99842.22;;;33.94;nan
2563;BME280;1291;51.420;6.970;2023-07-20T00:12:42;99840.75;;;34.14;nan
2563;BME280;1291;51.420;6.970;2023-07-20T00:15:13;99830.59;;;33.57;nan
2563;BME280;1291;51.420;6.970;2023-07-20T00:17:45;99829.16;;;33.77;nan
2563;BME280;1291;51.420;6.970;2023-07-20T00:20:10;99826.16;;;33.56;nan
2563;BME280;1291;51.420;6.970;2023-07-20T00:22:36;99829.31;;;33.86;nan
2563;BME280;1291;51.420;6.970;2023-07-20T00:25:02;99827.34;;;34.25;nan
2563;BME280;1291;51.420;6.970;2023-07-20T00:27:27;99828.19;;;34.02;nan
2563;BME280;1291;51.420;6.970;2023-07-20T00:29:53;99826.81;;;33.72;nan
2563;BME280;1291;51.420;6.970;2023-07-20T00:32:18;99819.81;;;33.57;nan
2563;BME280;1291;51.420;6.970;2023-07-20T00:34:43;99822.09;;;33.63;nan
2563;BME280;1291;51.420;6.970;2023-07-20T00:37:09;99827.94;;;32.93;nan
2563;BME280;1291;51.420;6.970;2023-07-20T00:39:34;99822.16;;;33.61;nan
2563;BME280;1291;51.420;6.970;2023-07-20T00:41:59;99821.91;;;33.15;nan
2563;BME280;1291;51.420;6.970;2023-07-20T00:44:25;99819.28;;;33.64;nan
2563;BME280;1291;51.420;6.970;2023-07-20T00:46:51;99815.63;;;33.53;nan
2563;BME280;1291;51.420;6.970;2023-07-20T00:49:16;99818.34;;;33.40;nan
2563;BME280;1291;51.420;6.970;2023-07-20T00:51:42;99812.34;;;33.73;nan
2563;BME280;1291;51.420;6.970;2023-07-20T00:54:07;99814.00;;;33.63;nan
2563;BME280;1291;51.420;6.970;2023-07-20T00:56:33;99811.50;;;33.60;nan
2563;BME280;1291;51.420;6.970;2023-07-20T00:58:58;99817.38;;;33.41;nan
2563;BME280;1291;51.420;6.970;2023-07-20T01:01:24;99825.78;;;32.98;nan
2563;BME280;1291;51.420;6.970;2023-07-20T01:03:49;99823.00;;;32.99;nan
2563;BME280;1291;51.420;6.970;2023-07-20T01:06:25;99823.41;;;33.44;nan
2563;BME280;1291;51.420;6.970;2023-07-20T01:09:26;99821.47;;;33.08;nan
2563;BME280;1291;51.420;6.970;2023-07-20T01:14:29;99816.72;;;33.50;nan
2563;BME280;1291;51.420;6.970;2023-07-20T01:16:55;99818.19;;;33.67;nan
2563;BME280;1291;51.420;6.970;2023-07-20T01:19:20;99814.19;;;33.10;nan
2563;BME280;1291;51.420;6.970;2023-07-20T01:25:34;99814.78;;;33.52;nan
2563;BME280;1291;51.420;6.970;2023-07-20T01:28:32;99815.38;;;33.19;nan
2563;BME280;1291;51.420;6.970;2023-07-20T01:31:34;99817.38;;;33.41;nan
2563;BME280;1291;51.420;6.970;2023-07-20T01:34:02;99811.56;;;33.34;nan
2563;BME280;1291;51.420;6.970;2023-07-20T01:36:30;99811.16;;;33.40;nan
2563;BME280;1291;51.420;6.970;2023-07-20T01:38:58;99813.28;;;32.58;nan
2563;BME280;1291;51.420;6.970;2023-07-20T01:41:24;99815.69;;;33.27;nan
2563;BME280;1291;51.420;6.970;2023-07-20T01:43:49;99811.25;;;33.39;nan
2563;BME280;1291;51.420;6.970;2023-07-20T01:46:14;99814.28;;;32.96;nan
2563;BME280;1291;51.420;6.970;2023-07-20T01:48:42;99815.69;;;33.01;nan
2563;BME280;1291;51.420;6.970;2023-07-20T01:51:08;99810.25;;;33.53;nan
2563;BME280;1291;51.420;6.970;2023-07-20T01:53:36;99821.09;;;32.48;nan
2563;BME280;1291;51.420;6.970;2023-07-20T01:56:02;99823.41;;;32.27;nan
2563;BME280;1291;51.420;6.970;2023-07-20T01:58:27;99814.59;;;33.04;nan
2563;BME280;1291;51.420;6.970;2023-07-20T02:00:52;99809.66;;;32.72;nan
2563;BME280;1291;51.420;6.970;2023-07-20T02:03:17;99801.47;;;32.61;nan
2563;BME280;1291;51.420;6.970;2023-07-20T02:05:43;99797.56;;;32.52;nan
2563;BME280;1291;51.420;6.970;2023-07-20T02:08:08;99804.56;;;31.73;nan
2563;BME280;1291;51.420;6.970;2023-07-20T02:10:34;99800.81;;;32.96;nan
2563;BME280;1291;51.420;6.970;2023-07-20T02:13:00;99795.75;;;32.65;nan
2563;BME280;1291;51.420;6.970;2023-07-20T02:15:25;99791.34;;;33.03;nan
2563;BME280;1291;51.420;6.970;2023-07-20T02:17:50;99795.34;;;33.23;nan
2563;BME280;1291;51.420;6.970;2023-07-20T02:20:16;99798.03;;;33.23;nan
2563;BME280;1291;51.420;6.970;2023-07-20T02:22:42;99809.13;;;32.80;nan
2563;BME280;1291;51.420;6.970;2023-07-20T02:25:08;99803.19;;;32.75;nan
2563;BME280;1291;51.420;6.970;2023-07-20T02:27:37;99797.84;;;33.13;nan
2563;BME280;1291;51.420;6.970;2023-07-20T02:30:04;99810.16;;;32.24;nan
2563;BME280;1291;51.420;6.970;2023-07-20T02:32:31;99814.69;;;31.41;nan
2563;BME280;1291;51.420;6.970;2023-07-20T02:34:57;99813.38;;;30.60;nan
2563;BME280;1291;51.420;6.970;2023-07-20T02:37:22;99804.16;;;32.61;nan
2563;BME280;1291;51.420;6.970;2023-07-20T02:39:47;99809.41;;;32.62;nan
2563;BME280;1291;51.420;6.970;2023-07-20T02:42:15;99822.00;;;30.35;nan
2563;BME280;1291;51.420;6.970;2023-07-20T02:44:41;99822.13;;;30.48;nan
2563;BME280;1291;51.420;6.970;2023-07-20T02:47:06;99826.09;;;30.85;nan
2563;BME280;1291;51.420;6.970;2023-07-20T02:49:31;99829.91;;;31.26;nan
2563;BME280;1291;51.420;6.970;2023-07-20T02:51:57;99826.66;;;31.35;nan
2563;BME280;1291;51.420;6.970;2023-07-20T02:54:22;99823.50;;;31.43;nan
2563;BME280;1291;51.420;6.970;2023-07-20T02:56:47;99822.34;;;31.47;nan
2563;BME280;1291;51.420;6.970;2023-07-20T02:59:13;99825.91;;;31.47;nan
2563;BME280;1291;51.420;6.970;2023-07-20T03:01:38;99829.41;;;29.01;nan
2563;BME280;1291;51.420;6.970;2023-07-20T03:04:03;99825.44;;;31.82;nan
2563;BME280;1291;51.420;6.970;2023-07-20T03:06:29;99831.59;;;30.84;nan
2563;BME280;1291;51.420;6.970;2023-07-20T03:08:54;99822.56;;;31.85;nan
2563;BME280;1291;51.420;6.970;2023-07-20T03:11:20;99833.00;;;31.48;nan
2563;BME280;1291;51.420;6.970;2023-07-20T03:13:46;99839.53;;;30.25;nan
2563;BME280;1291;51.420;6.970;2023-07-20T03:16:13;99827.72;;;31.04;nan
2563;BME280;1291;51.420;6.970;2023-07-20T03:18:41;99829.38;;;31.77;nan
2563;BME280;1291;51.420;6.970;2023-07-20T03:21:10;99834.47;;;32.23;nan
2563;BME280;1291;51.420;6.970;2023-07-20T03:23:47;99840.16;;;31.05;nan
2563;BME280;1291;51.420;6.970;2023-07-20T03:26:12;99835.19;;;31.56;nan
2563;BME280;1291;51.420;6.970;2023-07-20T03:28:38;99835.13;;;32.39;nan
2563;BME280;1291;51.420;6.970;2023-07-20T03:31:04;99830.47;;;32.56;nan
2563;BME280;1291;51.420;6.970;2023-07-20T03:33:33;99841.72;;;29.86;nan
2563;BME280;1291;51.420;6.970;2023-07-20T03:35:59;99836.41;;;31.36;nan
2563;BME280;1291;51.420;6.970;2023-07-20T03:38:25;99839.28;;;30.90;nan
2563;BME280;1291;51.420;6.970;2023-07-20T03:40:51;99828.56;;;32.70;nan
2563;BME280;1291;51.420;6.970;2023-07-20T03:43:17;99830.94;;;32.88;nan
2563;BME280;1291;51.420;6.970;2023-07-20T03:45:43;99836.56;;;30.45;nan
2563;BME280;1291;51.420;6.970;2023-07-20T03:48:08;99835.47;;;32.07;nan
2563;BME280;1291;51.420;6.970;2023-07-20T03:50:34;99836.84;;;31.86;nan
2563;BME280;1291;51.420;6.970;2023-07-20T03:52:59;99838.66;;;32.67;nan
2563;BME280;1291;51.420;6.970;2023-07-20T03:55:24;99840.84;;;31.66;nan
2563;BME280;1291;51.420;6.970;2023-07-20T03:57:50;99843.63;;;30.30;nan
2563;BME280;1291;51.420;6.970;2023-07-20T04:00:16;99846.97;;;30.20;nan
2563;BME280;1291;51.420;6.970;2023-07-20T04:02:42;99837.84;;;31.70;nan
2563;BME280;1291;51.420;6.970;2023-07-20T04:05:07;99846.75;;;30.54;nan
2563;BME280;1291;51.420;6.970;2023-07-20T04:07:33;99848.50;;;29.44;nan
2563;BME280;1291;51.420;6.970;2023-07-20T04:09:58;99851.38;;;30.37;nan
2563;BME280;1291;51.420;6.970;2023-07-20T04:12:24;99848.06;;;32.07;nan
2563;BME280;1291;51.420;6.970;2023-07-20T04:14:49;99850.63;;;32.76;nan
2563;BME280;1291;51.420;6.970;2023-07-20T04:17:14;99853.25;;;30.95;nan
2563;BME280;1291;51.420;6.970;2023-07-20T04:19:39;99856.25;;;31.77;nan
2563;BME280;1291;51.420;6.970;2023-07-20T04:22:05;99851.59;;;32.75;nan
2563;BME280;1291;51.420;6.970;2023-07-20T04:24:30;99857.31;;;31.60;nan
2563;BME280;1291;51.420;6.970;2023-07-20T04:26:55;99858.34;;;31.14;nan
2563;BME280;1291;51.420;6.970;2023-07-20T04:29:21;99855.66;;;31.86;nan
2563;BME280;1291;51.420;6.970;2023-07-20T04:31:46;99865.88;;;30.93;nan
2563;BME280;1291;51.420;6.970;2023-07-20T04:34:11;99866.97;;;30.74;nan
2563;BME280;1291;51.420;6.970;2023-07-20T04:36:37;99864.25;;;32.33;nan
2563;BME280;1291;51.420;6.970;2023-07-20T04:39:03;99868.44;;;31.95;nan
2563;BME280;1291;51.420;6.970;2023-07-20T04:41:29;99859.09;;;31.88;nan
2563;BME280;1291;51.420;6.970;2023-07-20T04:43:55;99863.28;;;31.50;nan
2563;BME280;1291;51.420;6.970;2023-07-20T04:46:20;99869.69;;;31.48;nan
2563;BME280;1291;51.420;6.970;2023-07-20T04:48:46;99867.50;;;31.96;nan
2563;BME280;1291;51.420;6.970;2023-07-20T04:51:13;99873.84;;;32.09;nan
2563;BME280;1291;51.420;6.970;2023-07-20T04:53:38;99870.25;;;32.23;nan
2563;BME280;1291;51.420;6.970;2023-07-20T04:56:04;99876.06;;;32.30;nan
2563;BME280;1291;51.420;6.970;2023-07-20T04:58:32;99879.53;;;32.72;nan
2563;BME280;1291;51.420;6.970;2023-07-20T05:00:57;99873.19;;;32.33;nan
2563;BME280;1291;51.420;6.970;2023-07-20T05:03:22;99872.84;;;32.38;nan
2563;BME280;1291;51.420;6.970;2023-07-20T05:05:48;99874.38;;;32.69;nan
2563;BME280;1291;51.420;6.970;2023-07-20T05:08:13;99881.34;;;32.71;nan
2563;BME280;1291;51.420;6.970;2023-07-20T05:10:39;99885.03;;;32.70;nan
2563;BME280;1291;51.420;6.970;2023-07-20T05:13:04;99874.81;;;32.76;nan
2563;BME280;1291;51.420;6.970;2023-07-20T05:15:29;99885.59;;;30.31;nan
2563;BME280;1291;51.420;6.970;2023-07-20T05:17:55;99886.25;;;32.25;nan
2563;BME280;1291;51.420;6.970;2023-07-20T05:20:20;99893.25;;;30.22;nan
2563;BME280;1291;51.420;6.970;2023-07-20T05:22:46;99884.59;;;32.49;nan
2563;BME280;1291;51.420;6.970;2023-07-20T05:25:11;99886.91;;;32.28;nan
2563;BME280;1291;51.420;6.970;2023-07-20T05:27:38;99894.66;;;30.29;nan
2563;BME280;1291;51.420;6.970;2023-07-20T05:30:04;99893.16;;;31.44;nan
2563;BME280;1291;51.420;6.970;2023-07-20T05:32:30;99896.09;;;30.81;nan
2563;BME280;1291;51.420;6.970;2023-07-20T05:34:56;99899.63;;;31.98;nan
2563;BME280;1291;51.420;6.970;2023-07-20T05:37:21;99900.78;;;30.77;nan
2563;BME280;1291;51.420;6.970;2023-07-20T05:39:47;99897.19;;;31.23;nan
2563;BME280;1291;51.420;6.970;2023-07-20T05:42:12;99887.94;;;32.93;nan
2563;BME280;1291;51.420;6.970;2023-07-20T05:44:37;99898.97;;;30.78;nan
2563;BME280;1291;51.420;6.970;2023-07-20T05:47:06;99895.06;;;31.71;nan
2563;BME280;1291;51.420;6.970;2023-07-20T05:49:31;99904.81;;;32.01;nan
2563;BME280;1291;51.420;6.970;2023-07-20T05:51:56;99893.53;;;31.67;nan
2563;BME280;1291;51.420;6.970;2023-07-20T05:54:24;99905.16;;;32.23;nan
2563;BME280;1291;51.420;6.970;2023-07-20T05:56:50;99910.13;;;31.30;nan
2563;BME280;1291;51.420;6.970;2023-07-20T05:59:15;99901.25;;;32.69;nan
2563;BME280;1291;51.420;6.970;2023-07-20T06:01:41;99910.06;;;32.17;nan
2563;BME280;1291;51.420;6.970;2023-07-20T06:04:06;99915.81;;;31.55;nan
2563;BME280;1291;51.420;6.970;2023-07-20T06:06:33;99924.16;;;31.05;nan
2563;BME280;1291;51.420;6.970;2023-07-20T06:09:00;99923.72;;;31.85;nan
2563;BME280;1291;51.420;6.970;2023-07-20T06:11:29;99919.78;;;31.90;nan
2563;BME280;1291;51.420;6.970;2023-07-20T06:13:54;99925.81;;;32.23;nan
2563;BME280;1291;51.420;6.970;2023-07-20T06:16:19;99921.81;;;32.28;nan
2563;BME280;1291;51.420;6.970;2023-07-20T06:18:45;99923.09;;;33.30;nan
2563;BME280;1291;51.420;6.970;2023-07-20T06:21:10;99938.97;;;31.56;nan
2563;BME280;1291;51.420;6.970;2023-07-20T06:23:36;99933.22;;;31.90;nan
2563;BME280;1291;51.420;6.970;2023-07-20T06:26:01;99931.34;;;32.20;nan
2563;BME280;1291;51.420;6.970;2023-07-20T06:28:29;99931.81;;;32.81;nan
2563;BME280;1291;51.420;6.970;2023-07-20T06:31:01;99937.22;;;31.98;nan
2563;BME280;1291;51.420;6.970;2023-07-20T06:33:27;99937.63;;;31.91;nan
2563;BME280;1291;51.420;6.970;2023-07-20T06:35:52;99945.59;;;30.59;nan
2563;BME280;1291;51.420;6.970;2023-07-20T06:38:18;99940.59;;;32.43;nan
2563;BME280;1291;51.420;6.970;2023-07-20T06:40:45;99944.81;;;32.47;nan
2563;BME280;1291;51.420;6.970;2023-07-20T06:43:10;99940.00;;;32.52;nan
2563;BME280;1291;51.420;6.970;2023-07-20T06:45:36;99950.44;;;32.29;nan
2563;BME280;1291;51.420;6.970;2023-07-20T06:48:04;99931.03;;;32.66;nan
2563;BME280;1291;51.420;6.970;2023-07-20T06:50:30;99935.38;;;32.54;nan
2563;BME280;1291;51.420;6.970;2023-07-20T06:52:55;99938.56;;;32.19;nan
2563;BME280;1291;51.420;6.970;2023-07-20T06:55:20;99934.00;;;32.88;nan
2563;BME280;1291;51.420;6.970;2023-07-20T06:57:46;99934.63;;;32.52;nan
2563;BME280;1291;51.420;6.970;2023-07-20T07:00:14;99941.50;;;31.28;nan
2563;BME280;1291;51.420;6.970;2023-07-20T07:02:40;99943.19;;;32.17;nan
2563;BME280;1291;51.420;6.970;2023-07-20T07:05:05;99939.88;;;32.26;nan
2563;BME280;1291;51.420;6.970;2023-07-20T07:07:31;99944.50;;;33.19;nan
2563;BME280;1291;51.420;6.970;2023-07-20T07:09:57;99938.69;;;33.51;nan
2563;BME280;1291;51.420;6.970;2023-07-20T07:12:22;99952.22;;;31.87;nan
2563;BME280;1291;51.420;6.970;2023-07-20T07:14:51;99958.34;;;31.89;nan
2563;BME280;1291;51.420;6.970;2023-07-20T07:17:16;99952.69;;;31.94;nan
2563;BME280;1291;51.420;6.970;2023-07-20T07:19:41;99951.38;;;32.28;nan
2563;BME280;1291;51.420;6.970;2023-07-20T07:22:07;99958.34;;;32.45;nan
2563;BME280;1291;51.420;6.970;2023-07-20T07:24:32;99953.44;;;33.58;nan
2563;BME280;1291;51.420;6.970;2023-07-20T07:27:00;99955.31;;;33.04;nan
2563;BME280;1291;51.420;6.970;2023-07-20T07:29:25;99940.06;;;33.95;nan
2563;BME280;1291;51.420;6.970;2023-07-20T07:31:51;99951.50;;;33.85;nan
2563;BME280;1291;51.420;6.970;2023-07-20T07:34:16;99948.28;;;33.93;nan
2563;BME280;1291;51.420;6.970;2023-07-20T07:36:41;99949.63;;;32.42;nan
2563;BME280;1291;51.420;6.970;2023-07-20T07:39:07;99954.66;;;33.01;nan
2563;BME280;1291;51.420;6.970;2023-07-20T07:41:32;99956.66;;;33.24;nan
2563;BME280;1291;51.420;6.970;2023-07-20T07:43:57;99955.22;;;32.39;nan
2563;BME280;1291;51.420;6.970;2023-07-20T07:46:23;99956.09;;;32.66;nan
2563;BME280;1291;51.420;6.970;2023-07-20T07:48:48;99973.91;;;31.40;nan
2563;BME280;1291;51.420;6.970;2023-07-20T07:51:14;99967.78;;;33.71;nan
2563;BME280;1291;51.420;6.970;2023-07-20T07:53:43;99964.94;;;33.98;nan
2563;BME280;1291;51.420;6.970;2023-07-20T07:56:09;99974.75;;;31.70;nan
2563;BME280;1291;51.420;6.970;2023-07-20T07:58:34;99983.84;;;30.77;nan
2563;BME280;1291;51.420;6.970;2023-07-20T08:01:00;99986.72;;;31.50;nan
2563;BME280;1291;51.420;6.970;2023-07-20T08:03:25;99980.56;;;32.20;nan
2563;BME280;1291;51.420;6.970;2023-07-20T08:05:54;99983.13;;;33.18;nan
2563;BME280;1291;51.420;6.970;2023-07-20T08:08:26;99984.13;;;30.09;nan
2563;BME280;1291;51.420;6.970;2023-07-20T08:10:55;99988.56;;;30.58;nan
2563;BME280;1291;51.420;6.970;2023-07-20T08:13:20;99986.16;;;32.17;nan
2563;BME280;1291;51.420;6.970;2023-07-20T08:15:50;99992.03;;;30.44;nan
2563;BME280;1291;51.420;6.970;2023-07-20T08:18:18;99993.91;;;32.22;nan
2563;BME280;1291;51.420;6.970;2023-07-20T08:20:45;100001.00;;;31.21;nan
2563;BME280;1291;51.420;6.970;2023-07-20T08:23:10;99998.75;;;32.58;nan
2563;BME280;1291;51.420;6.970;2023-07-20T08:25:42;99998.56;;;33.93;nan
2563;BME280;1291;51.420;6.970;2023-07-20T08:28:11;99992.00;;;33.33;nan
2563;BME280;1291;51.420;6.970;2023-07-20T08:30:41;99984.47;;;33.76;nan
2563;BME280;1291;51.420;6.970;2023-07-20T08:33:12;99986.81;;;33.17;nan
2563;BME280;1291;51.420;6.970;2023-07-20T08:35:37;99989.22;;;32.53;nan
2563;BME280;1291;51.420;6.970;2023-07-20T08:38:03;99996.69;;;32.35;nan
2563;BME280;1291;51.420;6.970;2023-07-20T08:40:33;99994.72;;;32.51;nan
2563;BME280;1291;51.420;6.970;2023-07-20T08:42:59;99994.03;;;33.42;nan
2563;BME280;1291;51.420;6.970;2023-07-20T08:45:28;99991.69;;;32.97;nan
2563;BME280;1291;51.420;6.970;2023-07-20T08:47:58;99993.81;;;33.19;nan
2563;BME280;1291;51.420;6.970;2023-07-20T08:50:25;99996.66;;;33.03;nan
2563;BME280;1291;51.420;6.970;2023-07-20T08:52:52;99992.81;;;32.39;nan
2563;BME280;1291;51.420;6.970;2023-07-20T08:55:19;100009.94;;;31.80;nan
2563;BME280;1291;51.420;6.970;2023-07-20T08:57:46;100007.38;;;32.49;nan
2563;BME280;1291;51.420;6.970;2023-07-20T09:00:13;100005.38;;;32.53;nan
2563;BME280;1291;51.420;6.970;2023-07-20T09:02:39;99998.31;;;34.08;nan
2563;BME280;1291;51.420;6.970;2023-07-20T09:05:08;100003.22;;;31.87;nan
2563;BME280;1291;51.420;6.970;2023-07-20T09:07:35;99998.69;;;33.53;nan
2563;BME280;1291;51.420;6.970;2023-07-20T09:10:01;99994.22;;;33.26;nan
2563;BME280;1291;51.420;6.970;2023-07-20T09:12:31;100000.88;;;32.80;nan
2563;BME280;1291;51.420;6.970;2023-07-20T09:14:57;100003.38;;;30.33;nan
2563;BME280;1291;51.420;6.970;2023-07-20T09:17:26;99997.63;;;33.68;nan
2563;BME280;1291;51.420;6.970;2023-07-20T09:19:52;100004.84;;;32.75;nan
2563;BME280;1291;51.420;6.970;2023-07-20T09:22:17;99998.06;;;33.87;nan
2563;BME280;1291;51.420;6.970;2023-07-20T09:24:43;99990.34;;;34.70;nan
2563;BME280;1291;51.420;6.970;2023-07-20T09:27:09;99991.03;;;33.06;nan
2563;BME280;1291;51.420;6.970;2023-07-20T09:29:47;100000.41;;;33.79;nan
2563;BME280;1291;51.420;6.970;2023-07-20T09:32:13;99988.72;;;35.27;nan
2563;BME280;1291;51.420;6.970;2023-07-20T09:34:43;99987.63;;;33.70;nan
2563;BME280;1291;51.420;6.970;2023-07-20T09:37:08;99992.16;;;32.77;nan
2563;BME280;1291;51.420;6.970;2023-07-20T09:39:42;99992.00;;;33.33;nan
2563;BME280;1291;51.420;6.970;2023-07-20T09:42:08;99989.25;;;34.59;nan
2563;BME280;1291;51.420;6.970;2023-07-20T09:44:34;99996.25;;;34.12;nan
2563;BME280;1291;51.420;6.970;2023-07-20T09:46:59;99990.28;;;34.45;nan
2563;BME280;1291;51.420;6.970;2023-07-20T09:49:26;99976.22;;;34.29;nan
2563;BME280;1291;51.420;6.970;2023-07-20T09:51:53;99986.75;;;35.04;nan
2563;BME280;1291;51.420;6.970;2023-07-20T09:54:21;99986.53;;;33.85;nan
2563;BME280;1291;51.420;6.970;2023-07-20T09:56:48;99989.72;;;33.91;nan
2563;BME280;1291;51.420;6.970;2023-07-20T09:59:13;99987.47;;;33.59;nan
2563;BME280;1291;51.420;6.970;2023-07-20T10:01:41;99990.75;;;33.64;nan
2563;BME280;1291;51.420;6.970;2023-07-20T10:04:11;99985.97;;;33.29;nan
2563;BME280;1291;51.420;6.970;2023-07-20T10:06:39;99993.25;;;33.14;nan
2563;BME280;1291;51.420;6.970;2023-07-20T10:09:07;99987.53;;;34.08;nan
2563;BME280;1291;51.420;6.970;2023-07-20T10:11:40;99988.09;;;32.97;nan
2563;BME280;1291;51.420;6.970;2023-07-20T10:14:08;99993.28;;;33.27;nan
2563;BME280;1291;51.420;6.970;2023-07-20T10:16:38;99988.66;;;34.43;nan
2563;BME280;1291;51.420;6.970;2023-07-20T10:19:11;99984.38;;;34.64;nan
2563;BME280;1291;51.420;6.970;2023-07-20T10:21:42;99986.69;;;34.82;nan
2563;BME280;1291;51.420;6.970;2023-07-20T10:24:08;99979.84;;;35.71;nan
2563;BME280;1291;51.420;6.970;2023-07-20T10:26:40;99984.16;;;33.81;nan
2563;BME280;1291;51.420;6.970;2023-07-20T10:29:06;99980.28;;;34.35;nan
2563;BME280;1291;51.420;6.970;2023-07-20T10:31:32;99986.59;;;33.45;nan
2563;BME280;1291;51.420;6.970;2023-07-20T10:34:01;99976.81;;;34.94;nan
2563;BME280;1291;51.420;6.970;2023-07-20T10:36:27;99984.91;;;36.53;nan
2563;BME280;1291;51.420;6.970;2023-07-20T10:38:56;99977.63;;;36.33;nan
2563;BME280;1291;51.420;6.970;2023-07-20T10:41:35;99977.50;;;36.00;nan
2563;BME280;1291;51.420;6.970;2023-07-20T10:44:04;99974.16;;;35.63;nan
2563;BME280;1291;51.420;6.970;2023-07-20T10:46:43;99971.41;;;36.42;nan
2563;BME280;1291;51.420;6.970;2023-07-20T10:49:13;99963.09;;;36.34;nan
2563;BME280;1291;51.420;6.970;2023-07-20T10:51:45;99969.69;;;33.43;nan
2563;BME280;1291;51.420;6.970;2023-07-20T10:56:44;99964.00;;;34.60;nan
2563;BME280;1291;51.420;6.970;2023-07-20T11:01:56;99962.03;;;33.12;nan
2563;BME280;1291;51.420;6.970;2023-07-20T11:04:42;99960.81;;;34.18;nan
2563;BME280;1291;51.420;6.970;2023-07-20T11:07:07;99947.66;;;34.75;nan
2563;BME280;1291;51.420;6.970;2023-07-20T11:09:37;99958.25;;;34.78;nan
2563;BME280;1291;51.420;6.970;2023-07-20T11:14:55;99953.06;;;34.26;nan
2563;BME280;1291;51.420;6.970;2023-07-20T11:17:28;99946.66;;;35.47;nan
2563;BME280;1291;51.420;6.970;2023-07-20T11:19:58;99955.88;;;36.00;nan
2563;BME280;1291;51.420;6.970;2023-07-20T11:22:24;99954.75;;;35.35;nan
2563;BME280;1291;51.420;6.970;2023-07-20T11:24:49;99947.41;;;34.54;nan
2563;BME280;1291;51.420;6.970;2023-07-20T11:27:15;99944.94;;;35.45;nan
2563;BME280;1291;51.420;6.970;2023-07-20T11:29:40;99939.31;;;35.82;nan
2563;BME280;1291;51.420;6.970;2023-07-20T11:32:06;99945.22;;;34.72;nan
2563;BME280;1291;51.420;6.970;2023-07-20T11:34:35;99936.78;;;33.27;nan
2563;BME280;1291;51.420;6.970;2023-07-20T11:37:01;99935.72;;;34.42;nan
2563;BME280;1291;51.420;6.970;2023-07-20T11:39:28;99935.97;;;34.98;nan
2563;BME280;1291;51.420;6.970;2023-07-20T11:42:03;99932.84;;;35.74;nan
2563;BME280;1291;51.420;6.970;2023-07-20T11:44:29;99940.75;;;33.85;nan
2563;BME280;1291;51.420;6.970;2023-07-20T11:47:02;99926.78;;;34.90;nan
2563;BME280;1291;51.420;6.970;2023-07-20T11:49:29;99931.75;;;34.59;nan
2563;BME280;1291;51.420;6.970;2023-07-20T11:51:55;99932.38;;;35.22;nan
2563;BME280;1291;51.420;6.970;2023-07-20T11:54:21;99921.34;;;36.04;nan
2563;BME280;1291;51.420;6.970;2023-07-20T11:56:47;99933.22;;;35.22;nan
2563;BME280;1291;51.420;6.970;2023-07-20T11:59:13;99925.28;;;36.11;nan
2563;BME280;1291;51.420;6.970;2023-07-20T12:01:38;99920.84;;;36.33;nan
2563;BME280;1291;51.420;6.970;2023-07-20T12:04:04;99919.31;;;33.58;nan
2563;BME280;1291;51.420;6.970;2023-07-20T12:06:29;99922.19;;;33.81;nan
2563;BME280;1291;51.420;6.970;2023-07-20T12:08:57;99911.38;;;36.59;nan
2563;BME280;1291;51.420;6.970;2023-07-20T12:11:36;99917.00;;;35.11;nan
2563;BME280;1291;51.420;6.970;2023-07-20T12:14:03;99912.63;;;36.67;nan
2563;BME280;1291;51.420;6.970;2023-07-20T12:16:30;99919.59;;;36.14;nan
2563;BME280;1291;51.420;6.970;2023-07-20T12:19:02;99920.44;;;34.66;nan
2563;BME280;1291;51.420;6.970;2023-07-20T12:21:30;99909.44;;;36.18;nan
2563;BME280;1291;51.420;6.970;2023-07-20T12:23:57;99920.38;;;35.37;nan
2563;BME280;1291;51.420;6.970;2023-07-20T12:26:23;99916.47;;;35.98;nan
2563;BME280;1291;51.420;6.970;2023-07-20T12:28:53;99919.91;;;35.66;nan
2563;BME280;1291;51.420;6.970;2023-07-20T12:31:18;99918.44;;;33.83;nan
2563;BME280;1291;51.420;6.970;2023-07-20T12:33:43;99909.06;;;34.26;nan
2563;BME280;1291;51.420;6.970;2023-07-20T12:36:10;99912.63;;;36.55;nan
2563;BME280;1291;51.420;6.970;2023-07-20T12:38:35;99912.03;;;35.63;nan
2563;BME280;1291;51.420;6.970;2023-07-20T12:41:02;99908.63;;;35.38;nan
2563;BME280;1291;51.420;6.970;2023-07-20T12:43:30;99907.13;;;35.23;nan
2563;BME280;1291;51.420;6.970;2023-07-20T12:45:57;99914.69;;;33.60;nan
2563;BME280;1291;51.420;6.970;2023-07-20T12:48:22;99905.44;;;35.90;nan
2563;BME280;1291;51.420;6.970;2023-07-20T12:50:51;99907.41;;;36.42;nan
2563;BME280;1291;51.420;6.970;2023-07-20T12:53:17;99901.91;;;36.33;nan
2563;BME280;1291;51.420;6.970;2023-07-20T12:55:42;99908.47;;;36.19;nan
2563;BME280;1291;51.420;6.970;2023-07-20T12:58:08;99900.25;;;35.87;nan
2563;BME280;1291;51.420;6.970;2023-07-20T13:00:33;99903.38;;;36.69;nan
2563;BME280;1291;51.420;6.970;2023-07-20T13:02:59;99901.88;;;35.78;nan
2563;BME280;1291;51.420;6.970;2023-07-20T13:05:25;99901.53;;;37.33;nan
2563;BME280;1291;51.420;6.970;2023-07-20T13:07:50;99900.84;;;36.13;nan
2563;BME280;1291;51.420;6.970;2023-07-20T13:10:16;99898.34;;;37.07;nan
2563;BME280;1291;51.420;6.970;2023-07-20T13:12:41;99895.44;;;37.40;nan
2563;BME280;1291;51.420;6.970;2023-07-20T13:15:10;99905.78;;;35.29;nan
2563;BME280;1291;51.420;6.970;2023-07-20T13:17:37;99896.22;;;35.24;nan
2563;BME280;1291;51.420;6.970;2023-07-20T13:20:03;99895.38;;;34.64;nan
2563;BME280;1291;51.420;6.970;2023-07-20T13:22:32;99905.34;;;35.11;nan
2563;BME280;1291;51.420;6.970;2023-07-20T13:24:58;99894.53;;;36.88;nan
2563;BME280;1291;51.420;6.970;2023-07-20T13:27:24;99893.75;;;38.60;nan
2563;BME280;1291;51.420;6.970;2023-07-20T13:29:54;99895.59;;;35.55;nan
2563;BME280;1291;51.420;6.970;2023-07-20T13:32:20;99896.84;;;35.73;nan
2563;BME280;1291;51.420;6.970;2023-07-20T13:34:45;99886.59;;;36.75;nan
2563;BME280;1291;51.420;6.970;2023-07-20T13:37:11;99888.09;;;38.03;nan
2563;BME280;1291;51.420;6.970;2023-07-20T13:39:37;99889.25;;;38.00;nan
2563;BME280;1291;51.420;6.970;2023-07-20T13:42:03;99889.63;;;36.61;nan
2563;BME280;1291;51.420;6.970;2023-07-20T13:44:30;99889.13;;;36.35;nan
2563;BME280;1291;51.420;6.970;2023-07-20T13:46:56;99889.16;;;35.11;nan
2563;BME280;1291;51.420;6.970;2023-07-20T13:49:24;99888.16;;;36.89;nan
2563;BME280;1291;51.420;6.970;2023-07-20T13:51:49;99888.72;;;35.96;nan
2563;BME280;1291;51.420;6.970;2023-07-20T13:54:18;99877.63;;;37.69;nan
2563;BME280;1291;51.420;6.970;2023-07-20T13:56:43;99883.19;;;37.77;nan